Puerto Iguazu, Argentina
Current Conditions -  °F | °C
As of 5:00 PM on Saturday 25 Oct 2014 (Local Time) from SBFI Reporting Station
Clear Clear  
Wind Chill: 93°   Ceiling: Unl
Heat Index: 93°   Visibility: 6mi
Dew Point: 61°   Wind: 7mph
Humidity: 34%   Direction: 310°NW
Pressure: 29.8"   Gusts: NA
Location:  25.57°S, 54.57°W
Report Text: SBFI 252000Z 31006KT CAVOK 34/16 Q1009
Loading
Personal Weather Stations






























Interactive Weather Map
Tropical Storm Tracking
New forecast layout! Learn more

10-Day Weather Forecast

Advertisements
Track Severe Weather on mobile